Time,TemperatureF,DewpointF,PressureIn,WindDirection,WindDirectionDegrees,WindSpeedMPH,WindSpeedGustMPH,Humidity,HourlyPrecipIn,Conditions,Clouds,dailyrainin,SolarRadiationWatts/m^2,SoftwareType,DateUTC
2013-07-07 00:03:00,75.4,60.5,30.07,SSE,165,4.0,4.0,60,0.00,CLR,FEW,0.00,0.0,WeatherDisplay:10.37,2013-07-06 22:03:00,
2013-07-07 00:08:00,75.4,60.5,30.07,SSE,162,4.6,0.0,60,0.00,CLR,FEW,0.00,0.0,WeatherDisplay:10.37,2013-07-06 22:08:00,
2013-07-07 00:13:00,75.0,61.1,30.07,SSE,163,3.5,3.5,62,0.00,CLR,FEW,0.00,0.0,WeatherDisplay:10.37,2013-07-06 22:13:00,
2013-07-07 00:19:00,74.7,60.8,30.07,SSE,163,0.0,0.0,62,0.00,CLR,FEW,0.00,0.0,WeatherDisplay:10.37,2013-07-06 22:19:00,
2013-07-07 00:24:00,74.1,62.0,30.07,SW,215,3.5,3.5,66,0.00,CLR,FEW,0.00,0.0,WeatherDisplay:10.37,2013-07-06 22:24:00,
2013-07-07 00:29:00,73.9,63.1,30.07,SW,215,3.5,3.5,69,0.00,CLR,FEW,0.00,0.0,WeatherDisplay:10.37,2013-07-06 22:29:00,
2013-07-07 00:35:00,73.7,63.7,30.07,SSW,213,5.0,0.0,71,0.00,CLR,FEW,0.00,0.0,WeatherDisplay:10.37,2013-07-06 22:35:00,
2013-07-07 00:40:00,73.4,63.4,30.07,SW,219,4.6,4.6,71,0.00,CLR,FEW,0.00,0.0,WeatherDisplay:10.37,2013-07-06 22:40:00,
2013-07-07 00:46:00,73.3,63.3,30.07,SSW,199,4.6,4.6,71,0.00,CLR,FEW,0.00,0.0,WeatherDisplay:10.37,2013-07-06 22:46:00,
2013-07-07 00:51:00,73.4,63.4,30.07,SSW,199,3.5,3.5,71,0.00,CLR,FEW,0.00,0.0,WeatherDisplay:10.37,2013-07-06 22:51:00,
2013-07-07 00:57:00,73.5,63.5,30.07,South,182,3.5,3.5,71,0.00,CLR,FEW,0.00,0.0,WeatherDisplay:10.37,2013-07-06 22:57:00,
2013-07-07 01:02:00,73.9,63.5,30.07,South,184,4.6,4.6,70,0.00,CLR,FEW,0.00,0.0,WeatherDisplay:10.37,2013-07-06 23:02:00,
2013-07-07 01:07:00,73.7,63.3,30.07,South,184,2.3,2.3,70,0.00,CLR,FEW,0.00,0.0,WeatherDisplay:10.37,2013-07-06 23:07:00,
2013-07-07 01:13:00,73.3,63.3,30.06,South,184,2.0,2.0,71,0.00,CLR,FEW,0.00,0.0,WeatherDisplay:10.37,2013-07-06 23:13:00,
2013-07-07 01:18:00,73.3,63.3,30.06,South,184,3.5,3.5,71,0.00,CLR,FEW,0.00,0.0,WeatherDisplay:10.37,2013-07-06 23:18:00,
2013-07-07 01:24:00,73.4,63.4,30.06,South,184,3.5,3.5,71,0.00,CLR,FEW,0.00,0.0,WeatherDisplay:10.37,2013-07-06 23:24:00,
2013-07-07 01:29:00,73.5,63.5,30.06,SSW,205,3.5,3.5,71,0.00,CLR,FEW,0.00,0.0,WeatherDisplay:10.37,2013-07-06 23:29:00,
2013-07-07 01:35:00,73.4,63.4,30.06,SSW,205,4.0,4.0,71,0.00,CLR,FEW,0.00,0.0,WeatherDisplay:10.37,2013-07-06 23:35:00,
2013-07-07 01:41:00,73.4,63.4,30.06,SSW,205,1.0,4.0,71,0.00,CLR,FEW,0.00,0.0,WeatherDisplay:10.37,2013-07-06 23:41:00,
2013-07-07 01:46:00,73.2,63.2,30.06,SSW,205,2.3,2.3,71,0.00,CLR,FEW,0.00,0.0,WeatherDisplay:10.37,2013-07-06 23:46:00,
2013-07-07 01:52:00,73.4,63.4,30.06,SSW,205,3.5,3.5,71,0.00,CLR,FEW,0.00,0.0,WeatherDisplay:10.37,2013-07-06 23:52:00,
2013-07-07 01:57:00,73.2,63.2,30.06,SSW,205,4.0,4.0,71,0.00,CLR,FEW,0.00,0.0,WeatherDisplay:10.37,2013-07-06 23:57:00,
2013-07-07 02:03:00,73.2,63.2,30.06,SSW,205,3.5,3.5,71,0.00,CLR,FEW,0.00,0.0,WeatherDisplay:10.37,2013-07-07 00:03:00,
2013-07-07 02:08:00,73.2,63.2,30.06,SSW,205,3.5,3.5,71,0.00,CLR,FEW,0.00,0.0,WeatherDisplay:10.37,2013-07-07 00:08:00,
2013-07-07 02:13:00,73.1,63.5,30.06,SSW,205,2.3,2.3,72,0.00,CLR,FEW,0.00,0.0,WeatherDisplay:10.37,2013-07-07 00:13:00,
2013-07-07 02:19:00,72.8,63.6,30.06,SSW,205,3.5,3.5,73,0.00,CLR,FEW,0.00,0.0,WeatherDisplay:10.37,2013-07-07 00:19:00,
2013-07-07 02:27:00,73.2,62.8,30.05,SSW,205,3.5,3.5,70,0.00,CLR,FEW,0.00,0.0,WeatherDisplay:10.37,2013-07-07 00:27:00,
2013-07-07 02:32:00,72.8,62.0,30.05,SSW,205,2.3,2.3,69,0.00,CLR,FEW,0.00,0.0,WeatherDisplay:10.37,2013-07-07 00:32:00,
2013-07-07 02:38:00,73.1,61.9,30.05,SSW,205,3.5,3.5,68,0.00,CLR,FEW,0.00,0.0,WeatherDisplay:10.37,2013-07-07 00:38:00,
2013-07-07 02:43:00,72.5,62.2,30.05,SSW,205,3.5,3.5,70,0.00,CLR,FEW,0.00,0.0,WeatherDisplay:10.37,2013-07-07 00:43:00,
2013-07-07 02:48:00,72.0,61.3,30.05,SSW,205,2.3,2.3,69,0.00,CLR,FEW,0.00,0.0,WeatherDisplay:10.37,2013-07-07 00:48:00,
2013-07-07 02:53:00,71.5,60.4,30.05,SSW,205,0.0,0.1,68,0.00,CLR,FEW,0.00,0.0,WeatherDisplay:10.37,2013-07-07 00:53:00,
2013-07-07 02:59:00,71.4,60.7,30.05,SSW,205,1.2,1.2,69,0.00,CLR,FEW,0.00,0.0,WeatherDisplay:10.37,2013-07-07 00:59:00,
2013-07-07 03:05:00,72.6,61.0,30.05,SSW,205,3.5,3.5,67,0.00,CLR,FEW,0.00,0.0,WeatherDisplay:10.37,2013-07-07 01:05:00,
2013-07-07 03:10:00,72.5,60.9,30.05,SSW,205,1.2,0.0,67,0.00,CLR,FEW,0.00,0.0,WeatherDisplay:10.37,2013-07-07 01:10:00,
2013-07-07 03:15:00,72.3,61.1,30.05,SSW,205,1.2,0.0,68,0.00,CLR,FEW,0.00,0.0,WeatherDisplay:10.37,2013-07-07 01:15:00,
2013-07-07 03:20:00,72.2,61.0,30.05,SSW,205,0.0,0.0,68,0.00,CLR,FEW,0.00,0.0,WeatherDisplay:10.37,2013-07-07 01:20:00,
2013-07-07 03:25:00,72.4,60.8,30.05,SSW,205,0.0,0.0,67,0.00,CLR,FEW,0.00,0.0,WeatherDisplay:10.37,2013-07-07 01:25:00,
2013-07-07 03:30:00,72.5,60.5,30.04,SSW,205,4.0,4.0,66,0.00,CLR,FEW,0.00,0.0,WeatherDisplay:10.37,2013-07-07 01:30:00,
2013-07-07 03:36:00,72.6,60.6,30.05,SSW,205,2.3,2.3,66,0.00,CLR,FEW,0.00,0.0,WeatherDisplay:10.37,2013-07-07 01:36:00,
2013-07-07 03:41:00,72.2,60.7,30.04,SSW,205,1.2,0.0,67,0.00,CLR,FEW,0.00,0.0,WeatherDisplay:10.37,2013-07-07 01:41:00,
2013-07-07 03:47:00,72.0,60.4,30.04,SSW,205,1.2,1.2,67,0.00,CLR,FEW,0.00,0.0,WeatherDisplay:10.37,2013-07-07 01:47:00,
2013-07-07 03:52:00,71.3,60.2,30.04,SSW,205,2.3,2.3,68,0.00,CLR,FEW,0.00,0.0,WeatherDisplay:10.37,2013-07-07 01:52:00,
2013-07-07 04:00:00,71.5,60.4,30.04,SSW,205,0.0,0.0,68,0.00,CLR,FEW,0.00,0.0,WeatherDisplay:10.37,2013-07-07 02:00:00,
2013-07-07 04:05:00,71.5,60.4,30.04,SSW,205,2.3,2.3,68,0.00,CLR,FEW,0.00,0.0,WeatherDisplay:10.37,2013-07-07 02:05:00,
2013-07-07 04:10:00,71.4,60.7,30.04,SSW,205,3.5,3.5,69,0.00,CLR,FEW,0.00,0.0,WeatherDisplay:10.37,2013-07-07 02:10:00,
2013-07-07 04:16:00,71.1,60.8,30.04,SSW,205,3.5,3.5,70,0.00,CLR,FEW,0.00,0.0,WeatherDisplay:10.37,2013-07-07 02:16:00,
2013-07-07 04:21:00,71.4,61.1,30.04,SSW,205,2.3,2.3,70,0.00,CLR,FEW,0.00,0.0,WeatherDisplay:10.37,2013-07-07 02:21:00,
2013-07-07 04:26:00,70.9,60.6,30.04,SSW,205,0.0,0.0,70,0.00,CLR,FEW,0.00,0.0,WeatherDisplay:10.37,2013-07-07 02:26:00,
2013-07-07 04:32:00,70.4,60.5,30.04,SSW,205,3.5,3.5,71,0.00,CLR,FEW,0.00,0.0,WeatherDisplay:10.37,2013-07-07 02:32:00,
2013-07-07 04:37:00,70.8,61.3,30.04,SSW,205,2.3,2.3,72,0.00,CLR,FEW,0.00,0.0,WeatherDisplay:10.37,2013-07-07 02:37:00,
2013-07-07 04:43:00,71.7,61.8,30.03,SSW,205,3.5,3.5,71,0.00,CLR,FEW,0.00,0.0,WeatherDisplay:10.37,2013-07-07 02:43:00,
2013-07-07 04:48:00,71.8,61.5,30.03,SSW,205,3.5,3.5,70,0.00,CLR,FEW,0.00,0.0,WeatherDisplay:10.37,2013-07-07 02:48:00,
2013-07-07 04:53:00,71.9,61.2,30.03,SSW,205,3.5,3.5,69,0.00,CLR,FEW,0.00,0.0,WeatherDisplay:10.37,2013-07-07 02:53:00,
2013-07-07 04:58:00,71.4,60.3,30.03,SSW,205,2.3,2.3,68,0.00,CLR,FEW,0.00,0.0,WeatherDisplay:10.37,2013-07-07 02:58:00,
2013-07-07 05:03:00,70.5,60.2,30.04,SSW,205,2.3,2.3,70,0.00,CLR,FEW,0.00,0.0,WeatherDisplay:10.37,2013-07-07 03:03:00,
2013-07-07 05:08:00,70.4,60.5,30.03,SSW,205,0.0,0.1,71,0.00,OVC,FEW,0.00,0.0,WeatherDisplay:10.37,2013-07-07 03:08:00,
2013-07-07 05:13:00,70.3,60.4,30.03,SSW,205,1.0,1.0,71,0.00,OVC,FEW,0.00,0.0,WeatherDisplay:10.37,2013-07-07 03:13:00,
2013-07-07 05:19:00,70.9,61.4,30.03,SSW,205,2.3,2.3,72,0.00,OVC,FEW,0.00,0.0,WeatherDisplay:10.37,2013-07-07 03:19:00,
2013-07-07 05:24:00,70.8,60.9,30.03,SSW,205,0.0,0.0,71,0.00,OVC,FEW,0.00,0.0,WeatherDisplay:10.37,2013-07-07 03:24:00,
2013-07-07 05:29:00,70.5,60.6,30.03,SSW,205,1.2,1.2,71,0.00,OVC,FEW,0.00,0.0,WeatherDisplay:10.37,2013-07-07 03:29:00,
2013-07-07 05:34:00,70.2,60.7,30.03,SSW,205,0.0,0.0,72,0.00,OVC,FEW,0.00,0.0,WeatherDisplay:10.37,2013-07-07 03:34:00,
2013-07-07 05:40:00,70.2,61.1,30.04,SSW,205,3.5,3.5,73,0.00,OVC,FEW,0.00,0.0,WeatherDisplay:10.37,2013-07-07 03:40:00,
2013-07-07 05:45:00,71.2,61.7,30.03,SSW,205,2.3,2.3,72,0.00,OVC,FEW,0.00,0.0,WeatherDisplay:10.37,2013-07-07 03:45:00,
2013-07-07 05:51:00,70.5,61.4,30.04,SSW,205,0.0,0.0,73,0.00,OVC,FEW,0.00,0.0,WeatherDisplay:10.37,2013-07-07 03:51:00,
2013-07-07 05:57:00,70.2,61.5,30.03,SSW,205,1.2,1.2,74,0.00,OVC,FEW,0.00,0.0,WeatherDisplay:10.37,2013-07-07 03:57:00,
2013-07-07 06:01:00,70.3,61.6,30.03,SSW,205,2.3,2.3,74,0.00,OVC,FEW,0.00,0.0,WeatherDisplay:10.37,2013-07-07 04:01:00,
2013-07-07 06:02:00,70.4,61.7,30.03,SSW,205,2.3,2.3,74,0.00,OVC,FEW,0.00,0.0,WeatherDisplay:10.37,2013-07-07 04:02:00,
2013-07-07 06:07:00,70.8,61.7,30.03,SSW,205,3.5,3.5,73,0.00,OVC,FEW,0.00,0.0,WeatherDisplay:10.37,2013-07-07 04:07:00,
2013-07-07 06:12:00,70.7,61.6,30.03,SSW,205,3.5,3.5,73,0.00,OVC,FEW,0.00,0.0,WeatherDisplay:10.37,2013-07-07 04:12:00,
2013-07-07 06:17:00,70.8,62.1,30.03,SSW,205,2.3,2.3,74,0.00,OVC,FEW,0.00,0.0,WeatherDisplay:10.37,2013-07-07 04:17:00,
2013-07-07 06:22:00,71.1,62.4,30.03,SSW,205,2.3,2.3,74,0.00,OVC,FEW,0.00,0.0,WeatherDisplay:10.37,2013-07-07 04:22:00,
2013-07-07 06:27:00,71.4,63.1,30.03,SSW,205,3.5,3.5,75,0.00,OVC,FEW,0.00,0.0,WeatherDisplay:10.37,2013-07-07 04:27:00,
2013-07-07 06:32:00,71.7,63.4,30.03,SSW,205,3.5,3.5,75,0.00,OVC,FEW,0.00,0.0,WeatherDisplay:10.37,2013-07-07 04:32:00,
2013-07-07 06:37:00,71.9,63.5,30.03,SSW,205,3.5,3.5,75,0.00,OVC,FEW,0.00,0.0,WeatherDisplay:10.37,2013-07-07 04:37:00,
2013-07-07 06:42:00,71.9,63.9,30.03,SSW,205,2.3,2.3,76,0.00,OVC,FEW,0.00,0.0,WeatherDisplay:10.37,2013-07-07 04:42:00,
2013-07-07 06:47:00,72.0,64.0,30.03,SSW,205,3.5,3.5,76,0.00,OVC,FEW,0.00,0.0,WeatherDisplay:10.37,2013-07-07 04:47:00,
2013-07-07 06:52:00,72.2,64.2,30.03,SSW,205,2.3,2.3,76,0.00,OVC,FEW,0.00,0.0,WeatherDisplay:10.37,2013-07-07 04:52:00,
2013-07-07 06:57:00,72.5,64.5,30.04,SSW,205,2.3,2.3,76,0.00,OVC,FEW,0.00,0.0,WeatherDisplay:10.37,2013-07-07 04:57:00,
2013-07-07 07:02:00,72.8,64.8,30.04,SSW,205,2.3,2.3,76,0.00,OVC,FEW,0.00,0.0,WeatherDisplay:10.37,2013-07-07 05:02:00,
2013-07-07 07:07:00,73.1,65.1,30.04,SSW,205,1.0,1.0,76,0.00,OVC,FEW,0.00,0.0,WeatherDisplay:10.37,2013-07-07 05:07:00,
2013-07-07 07:12:00,73.3,64.9,30.04,SSW,205,1.2,1.2,75,0.00,OVC,FEW,0.00,0.0,WeatherDisplay:10.37,2013-07-07 05:12:00,
2013-07-07 07:17:00,73.4,65.0,30.04,SSW,205,1.2,1.2,75,0.00,OVC,FEW,0.00,0.0,WeatherDisplay:10.37,2013-07-07 05:17:00,
2013-07-07 07:22:00,73.7,64.9,30.04,SSW,205,2.3,2.3,74,0.00,OVC,FEW,0.00,0.0,WeatherDisplay:10.37,2013-07-07 05:22:00,
2013-07-07 07:27:00,73.8,64.6,30.04,SSW,205,1.2,0.0,73,0.00,OVC,FEW,0.00,0.0,WeatherDisplay:10.37,2013-07-07 05:27:00,
2013-07-07 07:32:00,74.2,63.8,30.04,SSW,205,0.0,0.0,70,0.00,OVC,FEW,0.00,0.0,WeatherDisplay:10.37,2013-07-07 05:32:00,
2013-07-07 07:37:00,74.6,63.8,30.04,SSW,205,1.2,0.0,69,0.00,OVC,FEW,0.00,0.0,WeatherDisplay:10.37,2013-07-07 05:37:00,
2013-07-07 07:42:00,74.9,64.0,30.04,SSW,205,1.0,0.0,69,0.00,OVC,FEW,0.00,0.0,WeatherDisplay:10.37,2013-07-07 05:42:00,
2013-07-07 07:47:00,75.1,64.6,30.04,SSW,205,3.0,3.0,70,0.00,OVC,FEW,0.00,0.0,WeatherDisplay:10.37,2013-07-07 05:47:00,
2013-07-07 07:52:00,75.0,64.1,30.04,SSW,205,2.3,2.3,69,0.00,OVC,FEW,0.00,0.0,WeatherDisplay:10.37,2013-07-07 05:52:00,
2013-07-07 07:57:00,74.9,64.0,30.05,SSW,205,3.5,3.5,69,0.00,OVC,FEW,0.00,0.0,WeatherDisplay:10.37,2013-07-07 05:57:00,
2013-07-07 08:02:00,74.8,64.8,30.05,SSW,205,2.3,2.3,71,0.00,OVC,FEW,0.00,0.0,WeatherDisplay:10.37,2013-07-07 06:02:00,
2013-07-07 08:07:00,75.0,64.1,30.05,ESE,123,3.5,3.5,69,0.00,OVC,FEW,0.00,0.0,WeatherDisplay:10.37,2013-07-07 06:07:00,
2013-07-07 08:12:00,75.6,65.1,30.05,NE,55,2.3,2.3,70,0.00,OVC,FEW,0.00,0.0,WeatherDisplay:10.37,2013-07-07 06:12:00,
2013-07-07 08:17:00,75.8,64.9,30.05,NE,55,2.0,2.0,69,0.00,OVC,FEW,0.00,0.0,WeatherDisplay:10.37,2013-07-07 06:17:00,
2013-07-07 08:22:00,76.3,63.7,30.05,NE,55,2.3,2.3,65,0.00,OVC,FEW,0.00,0.0,WeatherDisplay:10.37,2013-07-07 06:22:00,
2013-07-07 08:27:00,76.8,65.9,30.05,NE,55,1.2,1.2,69,0.00,OVC,FEW,0.00,0.0,WeatherDisplay:10.37,2013-07-07 06:27:00,
2013-07-07 08:32:00,76.4,65.1,30.05,NE,55,3.5,3.5,68,0.00,OVC,FEW,0.00,0.0,WeatherDisplay:10.37,2013-07-07 06:32:00,
2013-07-07 08:37:00,76.7,64.5,30.05,NE,37,3.5,3.5,66,0.00,OVC,FEW,0.00,0.0,WeatherDisplay:10.37,2013-07-07 06:37:00,
2013-07-07 08:42:00,77.0,63.4,30.05,NE,37,3.5,3.5,63,0.00,OVC,FEW,0.00,0.0,WeatherDisplay:10.37,2013-07-07 06:42:00,
2013-07-07 08:47:00,76.9,64.2,30.05,NE,37,2.3,2.3,65,0.00,OVC,FEW,0.00,0.0,WeatherDisplay:10.37,2013-07-07 06:47:00,
2013-07-07 08:52:00,77.1,64.0,30.05,NE,37,1.2,1.2,64,0.00,OVC,FEW,0.00,0.0,WeatherDisplay:10.37,2013-07-07 06:52:00,
2013-07-07 08:57:00,77.6,64.0,30.06,NE,37,1.2,1.2,63,0.00,OVC,FEW,0.00,0.0,WeatherDisplay:10.37,2013-07-07 06:57:00,
2013-07-07 09:02:00,77.6,64.5,30.06,NE,37,2.3,2.3,64,0.00,OVC,FEW,0.00,0.0,WeatherDisplay:10.37,2013-07-07 07:02:00,
2013-07-07 09:07:00,77.2,63.2,30.06,NNE,24,1.2,1.2,62,0.00,OVC,FEW,0.00,0.0,WeatherDisplay:10.37,2013-07-07 07:07:00,
2013-07-07 09:12:00,77.5,63.5,30.06,NNE,24,2.3,2.3,62,0.00,OVC,FEW,0.00,0.0,WeatherDisplay:10.37,2013-07-07 07:12:00,
2013-07-07 09:17:00,77.9,61.9,30.06,North,5,3.5,3.5,58,0.00,OVC,FEW,0.00,0.0,WeatherDisplay:10.37,2013-07-07 07:17:00,
2013-07-07 09:22:00,78.1,64.5,30.05,North,5,2.3,2.3,63,0.00,OVC,FEW,0.00,0.0,WeatherDisplay:10.37,2013-07-07 07:22:00,
2013-07-07 09:27:00,78.1,62.6,30.05,North,360,3.5,3.5,59,0.00,OVC,FEW,0.00,0.0,WeatherDisplay:10.37,2013-07-07 07:27:00,
2013-07-07 09:32:00,78.4,63.8,30.06,North,360,3.5,3.5,61,0.00,OVC,FEW,0.00,0.0,WeatherDisplay:10.37,2013-07-07 07:32:00,
2013-07-07 09:37:00,77.9,61.9,30.06,North,11,3.5,3.5,58,0.00,OVC,FEW,0.00,0.0,WeatherDisplay:10.37,2013-07-07 07:37:00,
2013-07-07 09:42:00,78.5,62.0,30.06,NNE,29,6.9,6.9,57,0.00,OVC,FEW,0.00,0.0,WeatherDisplay:10.37,2013-07-07 07:42:00,
2013-07-07 09:47:00,78.3,63.3,30.06,NE,42,4.0,4.0,60,0.00,OVC,FEW,0.00,0.0,WeatherDisplay:10.37,2013-07-07 07:47:00,
2013-07-07 09:52:00,78.5,63.0,30.06,North,5,6.9,6.9,59,0.00,OVC,FEW,0.00,0.0,WeatherDisplay:10.37,2013-07-07 07:52:00,
2013-07-07 09:57:00,78.8,61.8,30.05,North,5,4.6,4.6,56,0.00,OVC,FEW,0.00,0.0,WeatherDisplay:10.37,2013-07-07 07:57:00,
2013-07-07 10:02:00,79.0,62.0,30.05,NW,323,4.6,4.6,56,0.00,OVC,FEW,0.00,0.0,WeatherDisplay:10.37,2013-07-07 08:02:00,
2013-07-07 10:07:00,79.8,62.7,30.05,NNE,32,5.8,5.8,56,0.00,OVC,FEW,0.00,0.0,WeatherDisplay:10.37,2013-07-07 08:07:00,
2013-07-07 10:12:00,79.5,61.9,30.06,NNE,24,5.8,5.8,55,0.00,OVC,FEW,0.00,0.0,WeatherDisplay:10.37,2013-07-07 08:12:00,
2013-07-07 10:17:00,79.1,62.1,30.06,North,9,4.6,4.6,56,0.00,OVC,FEW,0.00,0.0,WeatherDisplay:10.37,2013-07-07 08:17:00,
2013-07-07 10:22:00,80.1,63.5,30.05,NNE,27,3.5,3.5,57,0.00,OVC,FEW,0.00,0.0,WeatherDisplay:10.37,2013-07-07 08:22:00,
2013-07-07 10:27:00,80.3,62.7,30.05,North,351,4.6,4.6,55,0.00,OVC,FEW,0.00,0.0,WeatherDisplay:10.37,2013-07-07 08:27:00,
2013-07-07 10:32:00,79.9,62.3,30.05,ENE,67,4.6,4.6,55,0.00,OVC,FEW,0.00,0.0,WeatherDisplay:10.37,2013-07-07 08:32:00,
2013-07-07 10:37:00,80.3,63.2,30.05,NNE,29,3.5,3.5,56,0.00,OVC,FEW,0.00,0.0,WeatherDisplay:10.37,2013-07-07 08:37:00,
2013-07-07 10:42:00,80.4,63.8,30.05,North,355,3.5,3.5,57,0.00,OVC,FEW,0.00,0.0,WeatherDisplay:10.37,2013-07-07 08:42:00,
2013-07-07 10:47:00,80.7,64.1,30.05,West,262,2.3,2.3,57,0.00,OVC,FEW,0.00,0.0,WeatherDisplay:10.37,2013-07-07 08:47:00,
2013-07-07 10:52:00,81.2,65.0,30.05,West,278,3.5,3.5,58,0.00,OVC,FEW,0.00,0.0,WeatherDisplay:10.37,2013-07-07 08:52:00,
2013-07-07 10:57:00,82.0,65.8,30.05,NNW,342,4.0,4.0,58,0.00,OVC,FEW,0.00,0.0,WeatherDisplay:10.37,2013-07-07 08:57:00,
2013-07-07 11:02:00,81.5,65.8,30.05,WNW,300,3.5,3.5,59,0.00,OVC,FEW,0.00,0.0,WeatherDisplay:10.37,2013-07-07 09:02:00,
2013-07-07 11:07:00,81.6,65.9,30.05,West,266,3.5,3.5,59,0.00,OVC,FEW,0.00,0.0,WeatherDisplay:10.37,2013-07-07 09:07:00,
2013-07-07 11:12:00,80.1,65.0,30.05,West,259,4.6,4.6,60,0.00,OVC,FEW,0.00,0.0,WeatherDisplay:10.37,2013-07-07 09:12:00,
2013-07-07 11:17:00,80.3,65.6,30.05,WSW,258,3.5,3.5,61,0.00,OVC,FEW,0.00,0.0,WeatherDisplay:10.37,2013-07-07 09:17:00,
2013-07-07 11:22:00,80.0,65.3,30.05,West,279,3.5,4.2,61,0.00,OVC,FEW,0.00,0.0,WeatherDisplay:10.37,2013-07-07 09:22:00,
2013-07-07 11:27:00,79.4,65.2,30.05,West,263,5.8,5.8,62,0.00,OVC,FEW,0.00,0.0,WeatherDisplay:10.37,2013-07-07 09:27:00,
2013-07-07 11:32:00,79.6,64.5,30.06,SW,232,6.9,6.9,60,0.00,OVC,FEW,0.00,0.0,WeatherDisplay:10.37,2013-07-07 09:32:00,
2013-07-07 11:37:00,79.9,65.2,30.06,WSW,250,5.8,5.8,61,0.00,OVC,FEW,0.00,0.0,WeatherDisplay:10.37,2013-07-07 09:37:00,
2013-07-07 11:42:00,79.9,64.3,30.06,SW,234,5.8,5.8,59,0.00,OVC,FEW,0.00,0.0,WeatherDisplay:10.37,2013-07-07 09:42:00,
2013-07-07 11:47:00,80.6,64.9,30.06,SW,229,4.6,4.6,59,0.00,OVC,FEW,0.00,0.0,WeatherDisplay:10.37,2013-07-07 09:47:00,
2013-07-07 11:52:00,81.5,65.3,30.05,West,281,3.5,3.5,58,0.00,OVC,FEW,0.00,0.0,WeatherDisplay:10.37,2013-07-07 09:52:00,
2013-07-07 11:57:00,81.5,64.3,30.05,West,273,4.6,4.6,56,0.00,OVC,FEW,0.00,0.0,WeatherDisplay:10.37,2013-07-07 09:57:00,
2013-07-07 12:02:00,80.6,64.0,30.05,West,274,8.1,8.1,57,0.00,OVC,FEW,0.00,0.0,WeatherDisplay:10.37,2013-07-07 10:02:00,
2013-07-07 12:07:00,81.0,64.3,30.05,South,190,4.6,4.6,57,0.00,OVC,FEW,0.00,0.0,WeatherDisplay:10.37,2013-07-07 10:07:00,
2013-07-07 12:12:00,80.4,64.8,30.05,SW,236,4.6,4.6,59,0.00,OVC,FEW,0.00,0.0,WeatherDisplay:10.37,2013-07-07 10:12:00,
2013-07-07 12:17:00,79.7,64.6,30.05,WSW,245,4.6,4.6,60,0.00,OVC,FEW,0.00,0.0,WeatherDisplay:10.37,2013-07-07 10:17:00,
2013-07-07 12:22:00,79.0,64.4,30.05,SW,227,5.8,5.8,61,0.00,OVC,FEW,0.00,0.0,WeatherDisplay:10.37,2013-07-07 10:22:00,
2013-07-07 12:27:00,79.7,65.1,30.05,WSW,252,4.6,4.6,61,0.00,OVC,FEW,0.00,0.0,WeatherDisplay:10.37,2013-07-07 10:27:00,
2013-07-07 12:32:00,79.5,64.4,30.05,SSW,204,4.6,4.6,60,0.00,OVC,FEW,0.00,0.0,WeatherDisplay:10.37,2013-07-07 10:32:00,
2013-07-07 12:37:00,79.6,65.4,30.05,WSW,240,6.0,6.0,62,0.00,OVC,FEW,0.00,0.0,WeatherDisplay:10.37,2013-07-07 10:37:00,
2013-07-07 12:42:00,80.3,65.6,30.05,WSW,257,3.5,3.5,61,0.00,OVC,FEW,0.00,0.0,WeatherDisplay:10.37,2013-07-07 10:42:00,
2013-07-07 12:47:00,81.2,66.0,30.05,SW,223,5.8,5.8,60,0.00,OVC,FEW,0.00,0.0,WeatherDisplay:10.37,2013-07-07 10:47:00,
2013-07-07 12:52:00,81.2,65.5,30.05,West,264,6.9,6.9,59,0.00,OVC,FEW,0.00,0.0,WeatherDisplay:10.37,2013-07-07 10:52:00,
2013-07-07 12:57:00,81.7,65.0,30.05,WSW,249,5.0,5.0,57,0.00,OVC,FEW,0.00,0.0,WeatherDisplay:10.37,2013-07-07 10:57:00,
2013-07-07 13:02:00,81.0,63.8,30.04,WSW,242,5.8,5.8,56,0.00,OVC,FEW,0.00,0.0,WeatherDisplay:10.37,2013-07-07 11:02:00,
2013-07-07 13:07:00,81.1,63.9,30.04,WSW,248,7.0,7.0,56,0.00,OVC,FEW,0.00,0.0,WeatherDisplay:10.37,2013-07-07 11:07:00,
2013-07-07 13:12:00,81.1,64.9,30.04,WSW,242,6.0,6.0,58,0.00,OVC,FEW,0.00,0.0,WeatherDisplay:10.37,2013-07-07 11:12:00,
2013-07-07 13:17:00,81.1,64.9,30.04,WNW,284,5.8,5.8,58,0.00,OVC,FEW,0.00,0.0,WeatherDisplay:10.37,2013-07-07 11:17:00,
2013-07-07 13:22:00,81.8,65.1,30.04,SW,234,8.1,8.1,57,0.00,OVC,FEW,0.00,0.0,WeatherDisplay:10.37,2013-07-07 11:22:00,
2013-07-07 13:27:00,81.8,65.1,30.04,WSW,244,4.6,4.6,57,0.00,OVC,FEW,0.00,0.0,WeatherDisplay:10.37,2013-07-07 11:27:00,
2013-07-07 13:32:00,81.1,64.4,30.04,WSW,240,6.9,6.9,57,0.00,OVC,FEW,0.00,0.0,WeatherDisplay:10.37,2013-07-07 11:32:00,
2013-07-07 13:37:00,80.7,64.5,30.04,SW,234,7.0,7.0,58,0.00,OVC,FEW,0.00,0.0,WeatherDisplay:10.37,2013-07-07 11:37:00,
2013-07-07 13:42:00,81.1,64.9,30.03,WSW,257,5.0,5.0,58,0.00,OVC,FEW,0.00,0.0,WeatherDisplay:10.37,2013-07-07 11:42:00,
2013-07-07 13:47:00,81.5,64.8,30.03,NW,306,5.8,5.8,57,0.00,OVC,FEW,0.00,0.0,WeatherDisplay:10.37,2013-07-07 11:47:00,
2013-07-07 13:52:00,81.6,65.4,30.03,WSW,245,5.8,5.8,58,0.00,OVC,FEW,0.00,0.0,WeatherDisplay:10.37,2013-07-07 11:52:00,
2013-07-07 13:57:00,81.6,65.4,30.03,West,270,8.1,8.1,58,0.00,OVC,FEW,0.00,0.0,WeatherDisplay:10.37,2013-07-07 11:57:00,
2013-07-07 14:02:00,81.8,65.1,30.03,NW,306,4.6,4.6,57,0.00,OVC,FEW,0.00,0.0,WeatherDisplay:10.37,2013-07-07 12:02:00,
2013-07-07 14:07:00,81.3,64.6,30.03,SSW,198,8.1,8.1,57,0.00,OVC,FEW,0.00,0.0,WeatherDisplay:10.37,2013-07-07 12:07:00,
2013-07-07 14:12:00,81.2,64.0,30.03,WSW,255,8.1,8.1,56,0.00,OVC,FEW,0.00,0.0,WeatherDisplay:10.37,2013-07-07 12:12:00,
2013-07-07 14:17:00,82.4,64.6,30.03,WSW,248,6.0,6.0,55,0.00,OVC,FEW,0.00,0.0,WeatherDisplay:10.37,2013-07-07 12:17:00,
2013-07-07 14:22:00,82.8,64.5,30.02,West,277,8.1,8.1,54,0.00,OVC,FEW,0.00,0.0,WeatherDisplay:10.37,2013-07-07 12:22:00,
2013-07-07 14:27:00,83.3,63.8,30.02,West,275,5.0,5.0,52,0.00,OVC,FEW,0.00,0.0,WeatherDisplay:10.37,2013-07-07 12:27:00,
2013-07-07 14:32:00,82.7,63.3,30.02,WSW,249,6.9,6.9,52,0.00,OVC,FEW,0.00,0.0,WeatherDisplay:10.37,2013-07-07 12:32:00,
2013-07-07 14:37:00,82.8,65.0,30.02,West,270,5.8,5.8,55,0.00,OVC,FEW,0.00,0.0,WeatherDisplay:10.37,2013-07-07 12:37:00,
2013-07-07 14:42:00,81.6,64.9,30.02,WSW,257,6.9,6.9,57,0.00,OVC,FEW,0.00,0.0,WeatherDisplay:10.37,2013-07-07 12:42:00,
2013-07-07 14:47:00,80.3,63.7,30.02,SW,217,6.9,6.9,57,0.00,OVC,FEW,0.00,0.0,WeatherDisplay:10.37,2013-07-07 12:47:00,
2013-07-07 14:52:00,80.9,63.7,30.01,SW,217,6.0,6.0,56,0.00,OVC,FEW,0.00,0.0,WeatherDisplay:10.37,2013-07-07 12:52:00,
2013-07-07 14:57:00,81.2,60.2,30.01,SW,221,6.9,6.9,49,0.00,OVC,FEW,0.00,0.0,WeatherDisplay:10.37,2013-07-07 12:57:00,
2013-07-07 15:02:00,82.4,60.1,30.02,WSW,237,9.0,9.0,47,0.00,OVC,FEW,0.00,0.0,WeatherDisplay:10.37,2013-07-07 13:02:00,
2013-07-07 15:07:00,83.0,60.1,30.01,SW,222,8.1,8.1,46,0.00,OVC,FEW,0.00,0.0,WeatherDisplay:10.37,2013-07-07 13:07:00,
2013-07-07 15:12:00,81.7,60.1,30.01,WSW,242,5.8,5.8,48,0.00,OVC,FEW,0.00,0.0,WeatherDisplay:10.37,2013-07-07 13:12:00,
2013-07-07 15:17:00,81.0,62.3,30.01,SW,224,3.5,3.5,53,0.00,OVC,FEW,0.00,0.0,WeatherDisplay:10.37,2013-07-07 13:17:00,
2013-07-07 15:22:00,80.5,64.4,30.01,SW,235,4.6,4.6,58,0.00,OVC,FEW,0.00,0.0,WeatherDisplay:10.37,2013-07-07 13:22:00,
2013-07-07 15:27:00,79.4,65.7,30.02,SW,234,5.0,5.0,63,0.00,OVC,FEW,0.00,0.0,WeatherDisplay:10.37,2013-07-07 13:27:00,
2013-07-07 15:32:00,77.8,65.5,30.02,WSW,243,4.6,4.6,66,0.00,OVC,FEW,0.00,0.0,WeatherDisplay:10.37,2013-07-07 13:32:00,
2013-07-07 15:37:00,77.4,65.6,30.04,NE,36,5.0,5.0,67,0.00,OVC,FEW,0.00,0.0,WeatherDisplay:10.37,2013-07-07 13:37:00,
2013-07-07 15:42:00,76.9,67.2,30.04,ENE,61,11.5,11.5,72,0.00,OVC,FEW,0.00,0.0,WeatherDisplay:10.37,2013-07-07 13:42:00,
2013-07-07 15:47:00,75.8,67.7,30.04,NNE,22,5.8,5.8,76,0.00,OVC,FEW,0.00,0.0,WeatherDisplay:10.37,2013-07-07 13:47:00,
2013-07-07 15:52:00,75.1,67.4,30.05,NNE,26,4.6,4.6,77,0.00,OVC,FEW,0.00,0.0,WeatherDisplay:10.37,2013-07-07 13:52:00,
2013-07-07 15:57:00,74.8,66.7,30.05,NNE,26,3.0,3.0,76,0.00,OVC,FEW,0.00,0.0,WeatherDisplay:10.37,2013-07-07 13:57:00,
2013-07-07 16:02:00,75.3,66.4,30.04,NNE,26,2.3,2.3,74,0.00,OVC,FEW,0.00,0.0,WeatherDisplay:10.37,2013-07-07 14:02:00,
2013-07-07 16:07:00,75.9,65.0,30.04,NNE,26,2.3,2.3,69,0.00,OVC,FEW,0.00,0.0,WeatherDisplay:10.37,2013-07-07 14:07:00,
2013-07-07 16:12:00,76.1,65.6,30.04,NNW,329,1.2,1.2,70,0.00,OVC,FEW,0.00,0.0,WeatherDisplay:10.37,2013-07-07 14:12:00,
2013-07-07 16:17:00,76.0,66.7,30.04,WNW,292,3.5,3.5,73,0.00,OVC,FEW,0.00,0.0,WeatherDisplay:10.37,2013-07-07 14:17:00,
2013-07-07 16:22:00,75.7,66.4,30.05,North,351,3.5,3.5,73,0.00,OVC,FEW,0.00,0.0,WeatherDisplay:10.37,2013-07-07 14:22:00,
2013-07-07 16:27:00,75.2,66.3,30.05,NNE,30,3.5,3.5,74,0.00,OVC,FEW,0.00,0.0,WeatherDisplay:10.37,2013-07-07 14:27:00,
2013-07-07 16:32:00,75.1,66.2,30.05,NE,56,7.0,7.0,74,0.00,OVC,FEW,0.00,0.0,WeatherDisplay:10.37,2013-07-07 14:32:00,
2013-07-07 16:37:00,74.8,65.2,30.06,NNE,20,9.2,9.2,72,0.00,OVC,FEW,0.00,0.0,WeatherDisplay:10.37,2013-07-07 14:37:00,
2013-07-07 16:42:00,74.3,65.5,30.06,NNE,32,6.0,6.0,74,0.00,OVC,FEW,0.00,0.0,WeatherDisplay:10.37,2013-07-07 14:42:00,
2013-07-07 16:47:00,74.0,65.2,30.07,ENE,58,3.5,3.5,74,0.00,OVC,FEW,0.00,0.0,WeatherDisplay:10.37,2013-07-07 14:47:00,
2013-07-07 16:52:00,73.6,63.6,30.06,SE,144,11.5,11.5,71,0.00,OVC,FEW,0.00,0.0,WeatherDisplay:10.37,2013-07-07 14:52:00,
2013-07-07 16:57:00,72.9,62.5,30.06,East,84,15.0,15.0,70,0.00,OVC,FEW,0.00,0.0,WeatherDisplay:10.37,2013-07-07 14:57:00,
2013-07-07 17:02:00,72.5,61.7,30.05,SE,142,13.8,13.8,69,0.00,OVC,FEW,0.00,0.0,WeatherDisplay:10.37,2013-07-07 15:02:00,
2013-07-07 17:07:00,72.6,61.8,30.05,ESE,109,15.0,15.0,69,0.00,OVC,FEW,0.00,0.0,WeatherDisplay:10.37,2013-07-07 15:07:00,
2013-07-07 17:12:00,72.7,61.5,30.06,ESE,115,18.4,18.4,68,0.00,OVC,FEW,0.00,0.0,WeatherDisplay:10.37,2013-07-07 15:12:00,
2013-07-07 17:17:00,72.9,61.7,30.05,East,92,15.0,15.0,68,0.00,OVC,FEW,0.00,0.0,WeatherDisplay:10.37,2013-07-07 15:17:00,
2013-07-07 17:22:00,72.8,61.6,30.06,East,101,18.4,18.4,68,0.00,OVC,FEW,0.00,0.0,WeatherDisplay:10.37,2013-07-07 15:22:00,
2013-07-07 17:27:00,72.5,60.9,30.05,East,92,19.6,19.6,67,0.00,OVC,FEW,0.00,0.0,WeatherDisplay:10.37,2013-07-07 15:27:00,
2013-07-07 17:32:00,72.3,59.9,30.06,ESE,123,19.6,19.6,65,0.00,OVC,FEW,0.00,0.0,WeatherDisplay:10.37,2013-07-07 15:32:00,
2013-07-07 17:37:00,72.7,59.8,30.05,SE,130,20.7,20.7,64,0.00,OVC,FEW,0.00,0.0,WeatherDisplay:10.37,2013-07-07 15:37:00,
2013-07-07 17:42:00,72.9,59.6,30.05,SE,126,18.4,18.4,63,0.00,OVC,FEW,0.00,0.0,WeatherDisplay:10.37,2013-07-07 15:42:00,
2013-07-07 17:47:00,72.9,60.0,30.05,SE,124,19.6,19.6,64,0.00,OVC,FEW,0.00,0.0,WeatherDisplay:10.37,2013-07-07 15:47:00,
2013-07-07 17:52:00,72.5,60.5,30.05,ESE,118,15.0,15.0,66,0.00,OVC,FEW,0.00,0.0,WeatherDisplay:10.37,2013-07-07 15:52:00,
2013-07-07 17:57:00,72.0,61.3,30.06,SSE,153,17.3,17.3,69,0.00,OVC,FEW,0.00,0.0,WeatherDisplay:10.37,2013-07-07 15:57:00,
2013-07-07 18:02:00,71.7,61.8,30.06,SSE,160,15.0,15.0,71,0.00,OVC,FEW,0.00,0.0,WeatherDisplay:10.37,2013-07-07 16:02:00,
2013-07-07 18:07:00,71.5,61.6,30.07,SSW,192,18.4,18.4,71,0.00,OVC,FEW,0.00,0.0,WeatherDisplay:10.37,2013-07-07 16:07:00,
2013-07-07 18:12:00,71.4,61.9,30.06,SE,126,16.1,16.1,72,0.00,OVC,FEW,0.00,0.0,WeatherDisplay:10.37,2013-07-07 16:12:00,
2013-07-07 18:17:00,71.3,61.8,30.07,SSE,148,15.0,15.0,72,0.00,OVC,FEW,0.00,0.0,WeatherDisplay:10.37,2013-07-07 16:17:00,
2013-07-07 18:22:00,71.5,62.4,30.07,SSE,161,18.4,18.4,73,0.00,OVC,FEW,0.00,0.0,WeatherDisplay:10.37,2013-07-07 16:22:00,
2013-07-07 18:27:00,71.5,62.0,30.07,SSW,193,19.6,19.6,72,0.00,OVC,FEW,0.00,0.0,WeatherDisplay:10.37,2013-07-07 16:27:00,
2013-07-07 18:32:00,71.4,62.3,30.07,SE,137,19.6,19.6,73,0.00,OVC,FEW,0.00,0.0,WeatherDisplay:10.37,2013-07-07 16:32:00,
2013-07-07 18:37:00,71.2,62.5,30.07,East,96,19.6,19.6,74,0.00,OVC,FEW,0.00,0.0,WeatherDisplay:10.37,2013-07-07 16:37:00,
2013-07-07 18:42:00,71.3,63.0,30.07,SE,142,19.0,19.0,75,0.00,OVC,FEW,0.00,0.0,WeatherDisplay:10.37,2013-07-07 16:42:00,
2013-07-07 18:47:00,71.4,62.7,30.07,ESE,103,18.4,18.4,74,0.00,OVC,FEW,0.00,0.0,WeatherDisplay:10.37,2013-07-07 16:47:00,
2013-07-07 18:52:00,71.6,62.9,30.07,SE,136,16.1,16.1,74,0.00,OVC,FEW,0.00,0.0,WeatherDisplay:10.37,2013-07-07 16:52:00,
2013-07-07 18:57:00,71.9,62.0,30.07,East,94,17.3,17.3,71,0.00,OVC,FEW,0.00,0.0,WeatherDisplay:10.37,2013-07-07 16:57:00,
2013-07-07 19:02:00,72.6,61.0,30.07,SE,144,10.4,10.4,67,0.00,OVC,FEW,0.00,0.0,WeatherDisplay:10.37,2013-07-07 17:02:00,
2013-07-07 19:07:00,73.2,60.7,30.07,SE,146,8.1,8.1,65,0.00,OVC,FEW,0.00,0.0,WeatherDisplay:10.37,2013-07-07 17:07:00,
2013-07-07 19:12:00,73.6,59.8,30.07,ENE,76,15.0,15.0,62,0.00,OVC,FEW,0.00,0.0,WeatherDisplay:10.37,2013-07-07 17:12:00,
2013-07-07 19:17:00,73.7,59.9,30.07,NE,47,12.7,12.7,62,0.00,OVC,FEW,0.00,0.0,WeatherDisplay:10.37,2013-07-07 17:17:00,
2013-07-07 19:22:00,73.7,61.2,30.07,East,79,2.3,2.3,65,0.00,OVC,FEW,0.00,0.0,WeatherDisplay:10.37,2013-07-07 17:22:00,
2013-07-07 19:27:00,73.6,60.2,30.07,East,96,9.0,9.0,63,0.00,OVC,FEW,0.00,0.0,WeatherDisplay:10.37,2013-07-07 17:27:00,
2013-07-07 19:32:00,73.7,60.3,30.07,East,82,12.7,12.7,63,0.00,OVC,FEW,0.00,0.0,WeatherDisplay:10.37,2013-07-07 17:32:00,
2013-07-07 19:37:00,73.4,61.3,30.07,NE,42,4.0,4.0,66,0.00,OVC,FEW,0.00,0.0,WeatherDisplay:10.37,2013-07-07 17:37:00,
2013-07-07 19:42:00,73.4,59.6,30.07,NE,49,4.6,4.6,62,0.00,OVC,FEW,0.00,0.0,WeatherDisplay:10.37,2013-07-07 17:42:00,
2013-07-07 19:47:00,74.1,58.9,30.07,East,94,6.0,6.0,59,0.00,OVC,FEW,0.00,0.0,WeatherDisplay:10.37,2013-07-07 17:47:00,
2013-07-07 19:52:00,74.4,59.1,30.07,NE,55,4.0,4.0,59,0.00,OVC,FEW,0.00,0.0,WeatherDisplay:10.37,2013-07-07 17:52:00,
2013-07-07 19:57:00,74.3,58.6,30.07,ENE,59,4.0,4.0,58,0.00,OVC,FEW,0.00,0.0,WeatherDisplay:10.37,2013-07-07 17:57:00,
2013-07-07 20:02:00,74.3,58.6,30.07,East,82,5.8,5.8,58,0.00,OVC,FEW,0.00,0.0,WeatherDisplay:10.37,2013-07-07 18:02:00,
2013-07-07 20:07:00,74.2,58.5,30.07,ENE,71,3.5,3.5,58,0.00,OVC,FEW,0.00,0.0,WeatherDisplay:10.37,2013-07-07 18:07:00,
2013-07-07 20:12:00,73.9,58.7,30.06,ENE,71,2.3,2.3,59,0.00,OVC,FEW,0.00,0.0,WeatherDisplay:10.37,2013-07-07 18:12:00,
2013-07-07 20:17:00,73.6,59.3,30.06,ENE,71,2.3,0.0,61,0.00,OVC,FEW,0.00,0.0,WeatherDisplay:10.37,2013-07-07 18:17:00,
2013-07-07 20:22:00,73.3,59.5,30.06,ENE,71,1.2,1.2,62,0.00,OVC,FEW,0.00,0.0,WeatherDisplay:10.37,2013-07-07 18:22:00,
2013-07-07 20:27:00,73.0,59.2,30.06,ENE,71,2.3,2.3,62,0.00,OVC,FEW,0.00,0.0,WeatherDisplay:10.37,2013-07-07 18:27:00,
2013-07-07 20:32:00,72.7,59.4,30.06,ENE,71,1.2,1.2,63,0.00,OVC,FEW,0.00,0.0,WeatherDisplay:10.37,2013-07-07 18:32:00,
2013-07-07 20:37:00,72.5,60.1,30.06,ENE,71,1.2,1.2,65,0.00,OVC,FEW,0.00,0.0,WeatherDisplay:10.37,2013-07-07 18:37:00,
2013-07-07 20:42:00,72.3,60.7,30.06,ENE,71,2.3,2.3,67,0.00,OVC,FEW,0.00,0.0,WeatherDisplay:10.37,2013-07-07 18:42:00,
2013-07-07 20:47:00,72.0,60.9,30.06,ENE,71,2.3,2.3,68,0.00,OVC,FEW,0.00,0.0,WeatherDisplay:10.37,2013-07-07 18:47:00,
2013-07-07 20:52:00,71.9,61.6,30.06,ENE,71,3.5,3.5,70,0.00,OVC,FEW,0.00,0.0,WeatherDisplay:10.37,2013-07-07 18:52:00,
2013-07-07 20:57:00,71.5,62.4,30.06,ENE,71,1.2,1.2,73,0.00,OVC,FEW,0.00,0.0,WeatherDisplay:10.37,2013-07-07 18:57:00,
2013-07-07 21:02:00,71.1,62.8,30.06,ENE,71,4.0,4.0,75,0.00,CLR,FEW,0.00,0.0,WeatherDisplay:10.37,2013-07-07 19:02:00,
2013-07-07 21:07:00,70.9,63.0,30.06,ENE,71,3.5,3.5,76,0.00,CLR,FEW,0.00,0.0,WeatherDisplay:10.37,2013-07-07 19:07:00,
2013-07-07 21:12:00,70.8,63.2,30.06,ENE,71,3.5,3.5,77,0.00,CLR,FEW,0.00,0.0,WeatherDisplay:10.37,2013-07-07 19:12:00,
2013-07-07 21:17:00,70.6,63.4,30.06,ENE,76,4.6,4.6,78,0.00,CLR,FEW,0.00,0.0,WeatherDisplay:10.37,2013-07-07 19:17:00,
2013-07-07 21:22:00,70.6,63.0,30.07,East,79,4.6,4.6,77,0.00,CLR,FEW,0.00,0.0,WeatherDisplay:10.37,2013-07-07 19:22:00,
2013-07-07 21:27:00,70.8,63.2,30.07,ENE,57,3.5,3.5,77,0.00,CLR,FEW,0.00,0.0,WeatherDisplay:10.37,2013-07-07 19:27:00,
2013-07-07 21:32:00,70.8,63.2,30.07,NE,46,4.0,4.0,77,0.00,CLR,FEW,0.00,0.0,WeatherDisplay:10.37,2013-07-07 19:32:00,
2013-07-07 21:37:00,70.8,62.9,30.07,NE,56,5.8,5.8,76,0.00,CLR,FEW,0.00,0.0,WeatherDisplay:10.37,2013-07-07 19:37:00,
2013-07-07 21:42:00,71.0,62.3,30.07,ENE,57,6.9,6.9,74,0.00,CLR,FEW,0.00,0.0,WeatherDisplay:10.37,2013-07-07 19:42:00,
2013-07-07 21:47:00,71.3,63.0,30.07,NE,52,5.8,5.8,75,0.00,CLR,FEW,0.00,0.0,WeatherDisplay:10.37,2013-07-07 19:47:00,
2013-07-07 21:52:00,71.3,63.3,30.07,NE,53,3.5,3.5,76,0.00,CLR,FEW,0.00,0.0,WeatherDisplay:10.37,2013-07-07 19:52:00,
2013-07-07 21:57:00,70.9,63.3,30.08,ENE,67,4.6,4.6,77,0.00,CLR,FEW,0.00,0.0,WeatherDisplay:10.37,2013-07-07 19:57:00,
2013-07-07 22:02:00,70.6,63.0,30.08,ENE,72,3.5,3.5,77,0.00,CLR,FEW,0.00,0.0,WeatherDisplay:10.37,2013-07-07 20:02:00,
2013-07-07 22:07:00,70.4,63.6,30.08,ENE,69,4.6,4.6,79,0.00,CLR,FEW,0.00,0.0,WeatherDisplay:10.37,2013-07-07 20:07:00,
2013-07-07 22:12:00,70.2,63.0,30.08,ENE,77,4.6,4.6,78,0.00,CLR,FEW,0.00,0.0,WeatherDisplay:10.37,2013-07-07 20:12:00,
2013-07-07 22:17:00,70.2,62.3,30.08,ENE,76,4.6,4.6,76,0.00,CLR,FEW,0.00,0.0,WeatherDisplay:10.37,2013-07-07 20:17:00,
2013-07-07 22:22:00,70.7,61.6,30.08,ENE,76,2.3,2.3,73,0.00,CLR,FEW,0.00,0.0,WeatherDisplay:10.37,2013-07-07 20:22:00,
2013-07-07 22:27:00,71.3,61.8,30.08,ENE,68,3.5,3.5,72,0.00,CLR,FEW,0.00,0.0,WeatherDisplay:10.37,2013-07-07 20:27:00,
2013-07-07 22:32:00,71.7,62.2,30.08,ENE,68,1.2,1.2,72,0.00,CLR,FEW,0.00,0.0,WeatherDisplay:10.37,2013-07-07 20:32:00,
2013-07-07 22:37:00,71.4,61.9,30.08,ENE,68,0.0,0.0,72,0.00,CLR,FEW,0.00,0.0,WeatherDisplay:10.37,2013-07-07 20:37:00,
2013-07-07 22:42:00,71.0,61.9,30.08,ENE,68,1.2,1.2,73,0.00,CLR,FEW,0.00,0.0,WeatherDisplay:10.37,2013-07-07 20:42:00,
2013-07-07 22:47:00,71.1,62.0,30.08,ENE,68,2.0,2.0,73,0.00,CLR,FEW,0.00,0.0,WeatherDisplay:10.37,2013-07-07 20:47:00,
2013-07-07 22:52:00,71.3,62.2,30.08,ENE,68,3.0,3.0,73,0.00,CLR,FEW,0.00,0.0,WeatherDisplay:10.37,2013-07-07 20:52:00,
2013-07-07 22:57:00,71.3,61.8,30.08,ENE,68,2.3,2.3,72,0.00,CLR,FEW,0.00,0.0,WeatherDisplay:10.37,2013-07-07 20:57:00,
2013-07-07 23:02:00,71.5,62.0,30.08,ENE,68,2.3,2.3,72,0.00,CLR,FEW,0.00,0.0,WeatherDisplay:10.37,2013-07-07 21:02:00,
2013-07-07 23:07:00,71.8,61.9,30.08,ENE,68,3.5,3.5,71,0.00,CLR,FEW,0.00,0.0,WeatherDisplay:10.37,2013-07-07 21:07:00,
2013-07-07 23:12:00,71.9,62.0,30.08,ENE,68,3.5,3.5,71,0.00,CLR,FEW,0.00,0.0,WeatherDisplay:10.37,2013-07-07 21:12:00,
2013-07-07 23:17:00,71.7,62.2,30.08,ENE,68,1.2,1.2,72,0.00,CLR,FEW,0.00,0.0,WeatherDisplay:10.37,2013-07-07 21:17:00,
2013-07-07 23:22:00,71.7,62.2,30.08,ENE,68,1.2,0.0,72,0.00,CLR,FEW,0.00,0.0,WeatherDisplay:10.37,2013-07-07 21:22:00,
2013-07-07 23:27:00,71.8,62.3,30.08,ENE,68,0.0,0.0,72,0.00,CLR,FEW,0.00,0.0,WeatherDisplay:10.37,2013-07-07 21:27:00,
2013-07-07 23:32:00,71.7,62.6,30.08,ENE,68,0.0,0.0,73,0.00,CLR,FEW,0.00,0.0,WeatherDisplay:10.37,2013-07-07 21:32:00,
2013-07-07 23:37:00,71.5,62.4,30.08,ENE,68,0.0,0.0,73,0.00,CLR,FEW,0.00,0.0,WeatherDisplay:10.37,2013-07-07 21:37:00,
2013-07-07 23:42:00,71.1,62.4,30.08,ENE,68,2.3,0.0,74,0.00,CLR,FEW,0.00,0.0,WeatherDisplay:10.37,2013-07-07 21:42:00,
2013-07-07 23:47:00,70.8,62.5,30.08,ENE,68,2.3,2.3,75,0.00,CLR,FEW,0.00,0.0,WeatherDisplay:10.37,2013-07-07 21:47:00,
2013-07-07 23:52:00,70.5,62.2,30.09,ENE,68,2.3,2.3,75,0.00,CLR,FEW,0.00,0.0,WeatherDisplay:10.37,2013-07-07 21:52:00,
2013-07-07 23:57:00,71.0,62.7,30.09,ENE,68,2.3,2.3,75,0.00,CLR,FEW,0.00,0.0,WeatherDisplay:10.37,2013-07-07 21:57:00,